createdAt,value
2023-05-17T00:01:27.953Z,17.91
2023-05-17T00:04:13.992Z,17.87
2023-05-17T00:06:59.791Z,17.92
2023-05-17T00:09:47.401Z,17.86
2023-05-17T00:12:35.062Z,17.90
2023-05-17T00:15:21.487Z,17.79
2023-05-17T00:18:07.719Z,17.84
2023-05-17T00:20:53.741Z,17.81
2023-05-17T00:23:39.631Z,17.84
2023-05-17T00:26:25.705Z,17.81
2023-05-17T00:29:11.906Z,17.79
2023-05-17T00:31:58.031Z,17.78
2023-05-17T00:34:43.897Z,17.77
2023-05-17T00:37:34.803Z,17.68
2023-05-17T00:40:20.785Z,17.68
2023-05-17T00:43:07.242Z,17.61
2023-05-17T00:45:53.348Z,17.62
2023-05-17T00:48:39.836Z,17.58
2023-05-17T00:51:26.159Z,17.56
2023-05-17T00:54:12.546Z,17.57
2023-05-17T00:57:00.923Z,17.58
2023-05-17T00:59:47.687Z,17.58
2023-05-17T01:02:33.741Z,17.54
2023-05-17T01:05:21.068Z,17.50
2023-05-17T01:08:07.219Z,17.45
2023-05-17T01:10:59.113Z,17.41
2023-05-17T01:14:06.600Z,17.37
2023-05-17T01:17:06.668Z,17.30
2023-05-17T01:20:13.168Z,17.27
2023-05-17T01:23:25.170Z,17.22
2023-05-17T01:26:39.453Z,17.15
2023-05-17T01:29:29.072Z,17.10
2023-05-17T01:32:16.412Z,17.08
2023-05-17T01:35:05.682Z,16.98
2023-05-17T01:37:54.529Z,16.93
2023-05-17T01:41:06.428Z,16.91
2023-05-17T01:44:02.479Z,16.86
2023-05-17T01:46:50.091Z,16.87
2023-05-17T01:49:38.929Z,16.85
2023-05-17T01:52:31.936Z,16.77
2023-05-17T01:55:37.118Z,16.77
2023-05-17T01:58:26.306Z,16.76
2023-05-17T02:01:13.728Z,16.71
2023-05-17T02:03:59.832Z,16.71
2023-05-17T02:06:46.152Z,16.69
2023-05-17T02:09:32.165Z,16.62
2023-05-17T02:12:18.485Z,16.61
2023-05-17T02:15:05.131Z,16.58
2023-05-17T02:17:51.414Z,16.55
2023-05-17T02:20:37.453Z,16.53
2023-05-17T02:23:25.058Z,16.54
2023-05-17T02:26:12.234Z,16.55
2023-05-17T02:28:59.018Z,16.53
2023-05-17T02:31:46.286Z,16.46
2023-05-17T02:34:32.449Z,16.41
2023-05-17T02:37:18.924Z,16.40
2023-05-17T02:40:09.554Z,16.33
2023-05-17T02:42:55.348Z,16.33
2023-05-17T02:45:41.262Z,16.27
2023-05-17T02:48:27.002Z,16.16
2023-05-17T02:51:13.167Z,16.20
2023-05-17T02:53:59.622Z,16.13
2023-05-17T02:56:46.164Z,16.09
2023-05-17T02:59:33.535Z,16.09
2023-05-17T03:02:20.151Z,16.02
2023-05-17T03:05:06.395Z,16.04
2023-05-17T03:07:52.346Z,16.06
2023-05-17T03:10:38.268Z,16.01
2023-05-17T03:13:25.617Z,15.96
2023-05-17T03:16:11.814Z,15.98
2023-05-17T03:18:58.342Z,15.93
2023-05-17T03:21:44.863Z,15.94
2023-05-17T03:24:32.135Z,15.84
2023-05-17T03:27:19.432Z,15.80
2023-05-17T03:30:06.342Z,15.75
2023-05-17T03:32:57.665Z,15.74
2023-05-17T03:35:44.466Z,15.71
2023-05-17T03:38:31.048Z,15.71
2023-05-17T03:41:17.344Z,15.74
2023-05-17T03:44:03.985Z,15.71
2023-05-17T03:46:57.141Z,15.72
2023-05-17T03:49:43.878Z,15.72
2023-05-17T03:52:30.899Z,15.69
2023-05-17T03:55:18.140Z,15.72
2023-05-17T03:58:04.162Z,15.69
2023-05-17T04:00:50.353Z,15.68
2023-05-17T04:03:37.965Z,15.70
2023-05-17T04:06:24.810Z,15.68
2023-05-17T04:09:13.971Z,15.69
2023-05-17T04:11:59.893Z,15.70
2023-05-17T04:14:46.001Z,15.74
2023-05-17T04:17:32.173Z,15.74
2023-05-17T04:20:19.014Z,15.69
2023-05-17T04:23:05.245Z,15.74
2023-05-17T04:25:53.952Z,15.68
2023-05-17T04:28:41.339Z,15.69
2023-05-17T04:31:32.022Z,15.72
2023-05-17T04:34:19.529Z,15.71
2023-05-17T04:37:06.126Z,15.74
2023-05-17T04:39:55.221Z,15.74
2023-05-17T04:42:41.414Z,15.65
2023-05-17T04:45:28.067Z,15.70
2023-05-17T04:48:15.656Z,15.69
2023-05-17T04:51:04.837Z,15.71
2023-05-17T04:53:51.555Z,15.73
2023-05-17T04:56:37.900Z,15.76
2023-05-17T04:59:28.787Z,15.80
2023-05-17T05:02:15.147Z,15.81
2023-05-17T05:05:01.629Z,15.88
2023-05-17T05:07:47.934Z,15.85
2023-05-17T05:10:34.062Z,15.84
2023-05-17T05:13:22.045Z,15.78
2023-05-17T05:16:08.518Z,15.83
2023-05-17T05:18:55.852Z,15.82
2023-05-17T05:21:41.862Z,15.85
2023-05-17T05:24:28.073Z,15.92
2023-05-17T05:27:14.926Z,15.92
2023-05-17T05:30:02.364Z,16.02
2023-05-17T05:32:52.571Z,16.07
2023-05-17T05:35:39.104Z,16.08
2023-05-17T05:38:26.322Z,16.16
2023-05-17T05:41:12.434Z,16.21
2023-05-17T05:44:00.023Z,16.21
2023-05-17T05:46:46.092Z,16.24
2023-05-17T05:49:33.424Z,16.28
2023-05-17T05:52:19.354Z,16.31
2023-05-17T05:55:05.980Z,16.29
2023-05-17T05:57:52.164Z,16.29
2023-05-17T06:00:37.986Z,16.32
2023-05-17T06:03:24.760Z,16.28
2023-05-17T06:06:11.445Z,16.39
2023-05-17T06:08:59.677Z,16.42
2023-05-17T06:11:45.852Z,16.52
2023-05-17T06:14:31.784Z,16.57
2023-05-17T06:17:17.900Z,16.67
2023-05-17T06:20:04.286Z,16.69
2023-05-17T06:22:50.232Z,16.78
2023-05-17T06:25:36.090Z,16.80
2023-05-17T06:28:22.008Z,16.89
2023-05-17T06:31:07.815Z,16.89
2023-05-17T06:33:53.612Z,16.96
2023-05-17T06:36:40.796Z,17.02
2023-05-17T06:39:26.862Z,16.99
2023-05-17T06:42:12.760Z,17.07
2023-05-17T06:45:00.586Z,17.03
2023-05-17T06:47:46.643Z,17.07
2023-05-17T06:50:33.002Z,17.10
2023-05-17T06:53:19.081Z,17.05
2023-05-17T06:56:05.348Z,17.07
2023-05-17T06:58:51.647Z,17.07
2023-05-17T07:01:40.041Z,17.12
2023-05-17T07:04:29.374Z,17.19
2023-05-17T07:07:15.635Z,17.20
2023-05-17T07:10:01.714Z,17.26
2023-05-17T07:12:47.751Z,17.27
2023-05-17T07:15:33.812Z,17.27
2023-05-17T07:18:20.101Z,17.35
2023-05-17T07:21:06.237Z,17.43
2023-05-17T07:23:52.516Z,17.44
2023-05-17T07:26:38.695Z,17.44
2023-05-17T07:29:24.862Z,17.51
2023-05-17T07:32:12.208Z,17.55
2023-05-17T07:34:59.571Z,17.60
2023-05-17T07:37:46.123Z,17.62
2023-05-17T07:40:32.039Z,17.67
2023-05-17T07:43:18.279Z,17.70
2023-05-17T07:46:04.798Z,17.78
2023-05-17T07:48:51.396Z,17.81
2023-05-17T07:51:37.844Z,17.88
2023-05-17T07:54:30.214Z,17.91
2023-05-17T07:57:19.660Z,17.97
2023-05-17T08:00:09.107Z,17.98
2023-05-17T08:02:59.087Z,18.02
2023-05-17T08:05:45.457Z,18.10
2023-05-17T08:08:31.380Z,18.15
2023-05-17T08:11:18.294Z,18.12
2023-05-17T08:14:05.285Z,18.21
2023-05-17T08:16:54.464Z,18.22
2023-05-17T08:19:40.629Z,18.23
2023-05-17T08:22:27.554Z,18.28
2023-05-17T08:25:13.753Z,18.37
2023-05-17T08:28:00.248Z,18.39
2023-05-17T08:30:46.159Z,18.44
2023-05-17T08:33:32.843Z,18.46
2023-05-17T08:36:18.703Z,18.51
2023-05-17T08:39:05.127Z,18.55
2023-05-17T08:41:50.853Z,18.59
2023-05-17T08:44:38.707Z,18.70
2023-05-17T08:47:29.882Z,18.76
2023-05-17T08:50:17.558Z,18.79
2023-05-17T08:53:03.722Z,18.80
2023-05-17T08:55:51.058Z,18.90
2023-05-17T08:58:52.336Z,18.95
2023-05-17T09:01:44.042Z,18.84
2023-05-17T09:04:31.400Z,19.03
2023-05-17T09:07:17.555Z,19.01
2023-05-17T09:10:05.933Z,19.17
2023-05-17T09:12:53.145Z,19.22
2023-05-17T09:15:42.956Z,19.27
2023-05-17T09:18:33.280Z,19.37
2023-05-17T09:21:19.329Z,19.45
2023-05-17T09:24:07.683Z,19.50
2023-05-17T09:26:54.252Z,19.56
2023-05-17T09:29:40.181Z,19.60
2023-05-17T09:32:27.274Z,19.63
2023-05-17T09:35:13.883Z,19.72
2023-05-17T09:38:06.854Z,19.84
2023-05-17T09:40:54.772Z,19.88
2023-05-17T09:43:41.232Z,19.96
2023-05-17T09:46:28.064Z,20.06
2023-05-17T09:49:15.008Z,20.04
2023-05-17T09:52:06.556Z,20.20
2023-05-17T09:54:57.155Z,20.24
2023-05-17T09:57:44.419Z,20.39
2023-05-17T10:00:31.528Z,20.47
2023-05-17T10:03:18.152Z,20.52
2023-05-17T10:06:09.866Z,20.60
2023-05-17T10:08:59.234Z,20.62
2023-05-17T10:11:47.258Z,20.69
2023-05-17T10:14:35.451Z,20.73
2023-05-17T10:17:21.999Z,20.75
2023-05-17T10:20:10.525Z,20.83
2023-05-17T10:22:58.600Z,20.87
2023-05-17T10:25:45.730Z,20.95
2023-05-17T10:28:31.826Z,21.03
2023-05-17T10:31:18.201Z,21.09
2023-05-17T10:34:06.642Z,21.20
2023-05-17T10:36:53.060Z,21.25
2023-05-17T10:39:39.213Z,21.32
2023-05-17T10:42:26.720Z,21.39
2023-05-17T10:45:13.970Z,21.49
2023-05-17T10:48:03.882Z,21.55
2023-05-17T10:50:54.910Z,21.66
2023-05-17T10:54:12.507Z,21.71
2023-05-17T10:57:06.471Z,21.70
2023-05-17T11:00:00.808Z,21.77
2023-05-17T11:02:49.045Z,21.79
2023-05-17T11:05:35.325Z,21.92
2023-05-17T11:08:21.804Z,22.01
2023-05-17T11:11:21.044Z,22.10
2023-05-17T11:14:11.621Z,22.18
2023-05-17T11:16:58.404Z,22.29
2023-05-17T11:19:57.421Z,22.39
2023-05-17T11:23:05.133Z,22.42
2023-05-17T11:25:51.461Z,22.40
2023-05-17T11:28:39.371Z,22.51
2023-05-17T11:31:35.384Z,22.57
2023-05-17T11:34:25.256Z,22.53
2023-05-17T11:37:13.197Z,22.64
2023-05-17T11:40:07.016Z,22.77
2023-05-17T11:43:12.444Z,22.84
2023-05-17T11:46:02.561Z,22.92
2023-05-17T11:48:51.012Z,23.09
2023-05-17T11:51:37.199Z,23.16
2023-05-17T11:54:24.520Z,23.26
2023-05-17T11:57:12.735Z,23.30
2023-05-17T12:00:05.042Z,23.27
2023-05-17T12:03:25.660Z,23.28
2023-05-17T12:06:13.741Z,23.27
2023-05-17T12:09:00.397Z,23.20
2023-05-17T12:11:46.437Z,23.21
2023-05-17T12:14:33.127Z,23.21
2023-05-17T12:17:25.595Z,23.29
2023-05-17T12:20:11.808Z,23.33
2023-05-17T12:22:57.820Z,23.48
2023-05-17T12:25:43.659Z,23.59
2023-05-17T12:28:29.957Z,23.72
2023-05-17T12:31:18.493Z,23.80
2023-05-17T12:34:09.376Z,23.93
2023-05-17T12:36:56.002Z,24.06
2023-05-17T12:39:42.034Z,24.13
2023-05-17T12:42:28.265Z,24.29
2023-05-17T12:45:14.584Z,24.33
2023-05-17T12:48:01.123Z,24.41
2023-05-17T12:50:49.217Z,24.49
2023-05-17T12:53:39.572Z,24.52
2023-05-17T12:56:28.360Z,24.51
2023-05-17T12:59:20.977Z,24.59
2023-05-17T13:02:09.922Z,24.60
2023-05-17T13:05:18.899Z,24.72
2023-05-17T13:08:24.741Z,24.72
2023-05-17T13:11:14.791Z,24.76
2023-05-17T13:14:01.487Z,24.71
2023-05-17T13:16:47.583Z,24.80
2023-05-17T13:19:36.099Z,24.87
2023-05-17T13:22:22.115Z,24.88
2023-05-17T13:25:08.474Z,24.99
2023-05-17T13:27:55.646Z,25.06
2023-05-17T13:30:45.990Z,25.21
2023-05-17T13:33:32.428Z,25.37
2023-05-17T13:36:18.505Z,25.49
2023-05-17T13:39:04.849Z,25.64
2023-05-17T13:41:50.927Z,25.73
2023-05-17T13:44:38.453Z,25.77
2023-05-17T13:47:24.904Z,25.87
2023-05-17T13:50:12.182Z,25.95
2023-05-17T13:52:58.709Z,26.02
2023-05-17T13:55:44.913Z,26.05
2023-05-17T13:58:35.426Z,26.02
2023-05-17T14:01:22.584Z,25.98
2023-05-17T14:04:08.864Z,25.94
2023-05-17T14:06:55.382Z,25.86
2023-05-17T14:09:42.215Z,25.83
2023-05-17T14:12:28.820Z,25.73
2023-05-17T14:15:15.309Z,25.72
2023-05-17T14:18:01.379Z,25.72
2023-05-17T14:20:47.777Z,25.82
2023-05-17T14:23:34.923Z,25.90
2023-05-17T14:26:21.794Z,25.96
2023-05-17T14:29:08.009Z,26.13
2023-05-17T14:31:54.257Z,26.42
2023-05-17T14:34:40.316Z,26.74
2023-05-17T14:37:26.512Z,27.08
2023-05-17T14:40:12.822Z,27.38
2023-05-17T14:42:59.119Z,27.63
2023-05-17T14:45:45.296Z,27.76
2023-05-17T14:48:31.785Z,27.74
2023-05-17T14:51:19.202Z,27.73
2023-05-17T14:54:06.186Z,27.64
2023-05-17T14:56:53.584Z,27.53
2023-05-17T14:59:40.270Z,27.41
2023-05-17T15:02:26.706Z,27.25
2023-05-17T15:05:13.128Z,27.06
2023-05-17T15:07:59.420Z,26.84
2023-05-17T15:10:45.572Z,26.66
2023-05-17T15:13:31.603Z,26.46
2023-05-17T15:16:18.139Z,26.24
2023-05-17T15:19:04.695Z,26.06
2023-05-17T15:21:50.778Z,25.93
2023-05-17T15:24:37.676Z,25.77
2023-05-17T15:27:23.702Z,25.61
2023-05-17T15:30:13.207Z,25.51
2023-05-17T15:32:59.984Z,25.35
2023-05-17T15:35:46.168Z,25.20
2023-05-17T15:38:32.045Z,25.11
2023-05-17T15:41:21.784Z,25.02
2023-05-17T15:44:09.105Z,24.90
2023-05-17T15:46:55.112Z,24.81
2023-05-17T15:49:42.360Z,24.68
2023-05-17T15:52:28.382Z,24.62
2023-05-17T15:55:14.682Z,24.53
2023-05-17T15:58:00.814Z,24.50
2023-05-17T16:00:47.012Z,24.42
2023-05-17T16:03:38.023Z,24.37
2023-05-17T16:06:36.090Z,24.26
2023-05-17T16:09:22.419Z,24.23
2023-05-17T16:12:10.362Z,24.14
2023-05-17T16:15:04.674Z,24.10
2023-05-17T16:17:55.106Z,24.04
2023-05-17T16:20:42.819Z,23.97
2023-05-17T16:24:20.101Z,23.90
2023-05-17T16:27:08.151Z,23.85
2023-05-17T16:34:50.082Z,23.66
2023-05-17T16:43:27.739Z,23.47
2023-05-17T16:46:13.905Z,23.33
2023-05-17T16:48:59.754Z,23.28
2023-05-17T16:51:45.788Z,23.19
2023-05-17T16:59:15.983Z,22.85
2023-05-17T17:02:02.308Z,22.72
2023-05-17T17:04:48.153Z,22.63
2023-05-17T17:07:43.351Z,22.52
2023-05-17T17:10:29.811Z,22.41
2023-05-17T17:13:16.589Z,22.31
2023-05-17T17:16:02.565Z,22.23
2023-05-17T17:18:49.874Z,22.17
2023-05-17T17:21:36.874Z,22.13
2023-05-17T17:24:22.858Z,22.07
2023-05-17T17:28:13.951Z,22.07
2023-05-17T17:35:32.293Z,22.02
2023-05-17T17:38:18.277Z,21.98
2023-05-17T17:41:04.337Z,22.05
2023-05-17T17:44:01.704Z,22.03
2023-05-17T17:46:47.849Z,22.02
2023-05-17T17:49:36.052Z,21.91
2023-05-17T17:52:22.048Z,21.89
2023-05-17T17:55:10.259Z,21.84
2023-05-17T17:57:56.468Z,21.79
2023-05-17T18:00:42.835Z,21.71
2023-05-17T18:03:28.758Z,21.70
2023-05-17T18:06:14.857Z,21.66
2023-05-17T18:09:02.000Z,21.63
2023-05-17T18:11:49.435Z,21.65
2023-05-17T18:14:47.352Z,21.56
2023-05-17T18:17:33.391Z,21.51
2023-05-17T18:20:20.084Z,21.51
2023-05-17T18:23:07.362Z,21.45
2023-05-17T18:25:53.663Z,21.37
2023-05-17T18:28:42.829Z,21.34
2023-05-17T18:31:29.077Z,21.29
2023-05-17T18:34:15.627Z,21.27
2023-05-17T18:37:02.173Z,21.27
2023-05-17T18:39:48.178Z,21.25
2023-05-17T18:42:34.088Z,21.22
2023-05-17T18:45:20.447Z,21.14
2023-05-17T18:48:06.573Z,21.18
2023-05-17T18:50:53.157Z,21.14
2023-05-17T18:53:39.305Z,21.12
2023-05-17T18:56:26.073Z,21.11
2023-05-17T18:59:12.155Z,21.03
2023-05-17T19:01:58.579Z,21.10
2023-05-17T19:04:44.945Z,20.99
2023-05-17T19:07:31.272Z,21.05
2023-05-17T19:10:18.557Z,21.06
2023-05-17T19:13:06.852Z,21.01
2023-05-17T19:15:53.258Z,20.99
2023-05-17T19:18:39.276Z,21.00
2023-05-17T19:21:25.339Z,20.95
2023-05-17T19:24:11.550Z,20.91
2023-05-17T19:26:57.784Z,20.89
2023-05-17T19:29:43.607Z,20.80
2023-05-17T19:32:33.177Z,20.78
2023-05-17T19:35:19.482Z,20.78
2023-05-17T19:38:05.585Z,20.73
2023-05-17T19:40:51.891Z,20.70
2023-05-17T19:43:38.576Z,20.68
2023-05-17T19:46:24.568Z,20.65
2023-05-17T19:49:12.837Z,20.65
2023-05-17T19:52:01.439Z,20.63
2023-05-17T19:54:48.298Z,20.61
2023-05-17T19:57:34.196Z,20.61
2023-05-17T20:00:21.030Z,20.58
2023-05-17T20:03:07.433Z,20.57
2023-05-17T20:05:55.313Z,20.51
2023-05-17T20:08:42.058Z,20.44
2023-05-17T20:11:28.138Z,20.45
2023-05-17T20:14:16.177Z,20.44
2023-05-17T20:17:02.281Z,20.38
2023-05-17T20:19:48.477Z,20.42
2023-05-17T20:22:36.226Z,20.40
2023-05-17T20:25:24.139Z,20.37
2023-05-17T20:28:10.288Z,20.35
2023-05-17T20:30:56.297Z,20.38
2023-05-17T20:33:44.219Z,20.31
2023-05-17T20:36:31.463Z,20.26
2023-05-17T20:39:18.098Z,20.24
2023-05-17T20:42:05.464Z,20.23
2023-05-17T20:44:53.861Z,20.26
2023-05-17T20:47:39.754Z,20.21
2023-05-17T20:50:25.763Z,20.18
2023-05-17T20:53:11.928Z,20.16
2023-05-17T20:55:58.562Z,20.18
2023-05-17T20:58:44.371Z,20.15
2023-05-17T21:01:31.331Z,20.14
2023-05-17T21:04:18.819Z,20.07
2023-05-17T21:07:05.919Z,20.07
2023-05-17T21:09:52.271Z,20.05
2023-05-17T21:12:38.405Z,20.01
2023-05-17T21:15:26.005Z,19.98
2023-05-17T21:18:12.446Z,19.93
2023-05-17T21:20:59.325Z,19.90
2023-05-17T21:23:46.701Z,19.85
2023-05-17T21:26:32.936Z,19.80
2023-05-17T21:29:19.095Z,19.80
2023-05-17T21:32:05.677Z,19.74
2023-05-17T21:34:53.791Z,19.71
2023-05-17T21:37:41.985Z,19.68
2023-05-17T21:40:27.938Z,19.70
2023-05-17T21:43:14.356Z,19.69
2023-05-17T21:46:00.415Z,19.65
2023-05-17T21:48:46.341Z,19.61
2023-05-17T21:51:32.490Z,19.59
2023-05-17T21:54:18.731Z,19.56
2023-05-17T21:57:04.848Z,19.57
2023-05-17T21:59:51.596Z,19.55
2023-05-17T22:02:37.639Z,19.52
2023-05-17T22:05:24.116Z,19.55
2023-05-17T22:08:10.401Z,19.53
2023-05-17T22:10:57.262Z,19.53
2023-05-17T22:13:43.199Z,19.52
2023-05-17T22:16:33.099Z,19.51
2023-05-17T22:19:21.409Z,19.53
2023-05-17T22:22:09.532Z,19.50
2023-05-17T22:24:55.981Z,19.48
2023-05-17T22:27:42.378Z,19.50
2023-05-17T22:30:28.967Z,19.49
2023-05-17T22:33:15.416Z,19.45
2023-05-17T22:36:04.931Z,19.49
2023-05-17T22:38:51.038Z,19.45
2023-05-17T22:41:37.213Z,19.46
2023-05-17T22:44:23.197Z,19.45
2023-05-17T22:47:09.399Z,19.44
2023-05-17T22:49:55.394Z,19.42
2023-05-17T22:52:42.821Z,19.41
2023-05-17T22:55:29.443Z,19.44
2023-05-17T22:58:16.139Z,19.42
2023-05-17T23:01:02.359Z,19.41
2023-05-17T23:03:48.449Z,19.37
2023-05-17T23:06:37.070Z,19.31
2023-05-17T23:09:23.341Z,19.29
2023-05-17T23:12:14.138Z,19.28
2023-05-17T23:15:00.699Z,19.25
2023-05-17T23:17:47.542Z,19.21
2023-05-17T23:20:35.140Z,19.17
2023-05-17T23:23:23.228Z,19.17
2023-05-17T23:26:43.251Z,19.12
2023-05-17T23:29:29.584Z,19.07
2023-05-17T23:32:16.723Z,18.98
2023-05-17T23:35:05.741Z,18.94
2023-05-17T23:37:54.715Z,18.91
2023-05-17T23:40:41.104Z,18.94
2023-05-17T23:43:26.987Z,18.90
2023-05-17T23:46:13.841Z,18.96
2023-05-17T23:48:59.905Z,19.01
2023-05-17T23:51:46.610Z,18.98
2023-05-17T23:54:32.468Z,19.03
2023-05-17T23:57:18.466Z,19.03
